sensor_id;sensor_type;location;lat;lon;timestamp;P1;durP1;ratioP1;P2;durP2;ratioP2
14510;SDS011;7341;50.930;4.038;2022-09-27T00:02:10;4.87;;;1.43;;
14510;SDS011;7341;50.930;4.038;2022-09-27T00:04:37;2.40;;;1.03;;
14510;SDS011;7341;50.930;4.038;2022-09-27T00:07:03;5.80;;;1.00;;
14510;SDS011;7341;50.930;4.038;2022-09-27T00:09:31;4.70;;;1.23;;
14510;SDS011;7341;50.930;4.038;2022-09-27T00:11:58;3.60;;;0.80;;
14510;SDS011;7341;50.930;4.038;2022-09-27T00:14:25;3.67;;;0.90;;
14510;SDS011;7341;50.930;4.038;2022-09-27T00:16:54;4.53;;;1.40;;
14510;SDS011;7341;50.930;4.038;2022-09-27T00:19:21;4.23;;;1.10;;
14510;SDS011;7341;50.930;4.038;2022-09-27T00:21:50;2.73;;;1.10;;
14510;SDS011;7341;50.930;4.038;2022-09-27T00:24:18;6.20;;;1.60;;
14510;SDS011;7341;50.930;4.038;2022-09-27T00:26:46;4.47;;;1.60;;
14510;SDS011;7341;50.930;4.038;2022-09-27T00:29:15;2.87;;;0.90;;
14510;SDS011;7341;50.930;4.038;2022-09-27T00:31:43;1.93;;;0.80;;
14510;SDS011;7341;50.930;4.038;2022-09-27T00:34:15;6.20;;;1.77;;
14510;SDS011;7341;50.930;4.038;2022-09-27T00:36:44;5.53;;;0.97;;
14510;SDS011;7341;50.930;4.038;2022-09-27T00:39:11;4.40;;;1.10;;
14510;SDS011;7341;50.930;4.038;2022-09-27T00:41:38;3.63;;;0.93;;
14510;SDS011;7341;50.930;4.038;2022-09-27T00:47:08;2.40;;;1.10;;
14510;SDS011;7341;50.930;4.038;2022-09-27T00:49:41;6.73;;;1.77;;
14510;SDS011;7341;50.930;4.038;2022-09-27T00:52:13;3.90;;;1.03;;
14510;SDS011;7341;50.930;4.038;2022-09-27T00:54:47;3.23;;;1.13;;
14510;SDS011;7341;50.930;4.038;2022-09-27T00:57:18;3.47;;;1.47;;
14510;SDS011;7341;50.930;4.038;2022-09-27T00:59:48;4.87;;;1.10;;
14510;SDS011;7341;50.930;4.038;2022-09-27T01:02:18;1.77;;;1.30;;
14510;SDS011;7341;50.930;4.038;2022-09-27T01:04:47;6.30;;;1.30;;
14510;SDS011;7341;50.930;4.038;2022-09-27T01:07:15;3.43;;;1.40;;
14510;SDS011;7341;50.930;4.038;2022-09-27T01:09:42;2.73;;;1.00;;
14510;SDS011;7341;50.930;4.038;2022-09-27T01:12:10;3.87;;;1.10;;
14510;SDS011;7341;50.930;4.038;2022-09-27T01:14:52;4.80;;;1.50;;
14510;SDS011;7341;50.930;4.038;2022-09-27T01:17:33;1.93;;;1.20;;
14510;SDS011;7341;50.930;4.038;2022-09-27T01:20:17;3.60;;;1.00;;
14510;SDS011;7341;50.930;4.038;2022-09-27T01:23:09;1.73;;;1.30;;
14510;SDS011;7341;50.930;4.038;2022-09-27T01:26:01;3.53;;;1.40;;
14510;SDS011;7341;50.930;4.038;2022-09-27T01:28:42;4.63;;;1.90;;
14510;SDS011;7341;50.930;4.038;2022-09-27T01:31:18;2.83;;;2.00;;
14510;SDS011;7341;50.930;4.038;2022-09-27T01:33:51;3.07;;;1.90;;
14510;SDS011;7341;50.930;4.038;2022-09-27T01:36:27;5.30;;;2.00;;
14510;SDS011;7341;50.930;4.038;2022-09-27T01:39:08;2.87;;;1.20;;
14510;SDS011;7341;50.930;4.038;2022-09-27T01:41:46;2.88;;;1.30;;
14510;SDS011;7341;50.930;4.038;2022-09-27T01:44:24;2.70;;;1.03;;
14510;SDS011;7341;50.930;4.038;2022-09-27T01:46:58;2.40;;;1.10;;
14510;SDS011;7341;50.930;4.038;2022-09-27T01:49:30;3.90;;;1.13;;
14510;SDS011;7341;50.930;4.038;2022-09-27T01:52:03;3.80;;;1.00;;
14510;SDS011;7341;50.930;4.038;2022-09-27T01:54:34;4.13;;;1.20;;
14510;SDS011;7341;50.930;4.038;2022-09-27T01:57:04;2.30;;;1.00;;
14510;SDS011;7341;50.930;4.038;2022-09-27T01:59:36;2.37;;;0.90;;
14510;SDS011;7341;50.930;4.038;2022-09-27T02:02:08;1.87;;;1.00;;
14510;SDS011;7341;50.930;4.038;2022-09-27T02:04:37;2.90;;;1.20;;
14510;SDS011;7341;50.930;4.038;2022-09-27T02:07:08;5.03;;;1.80;;
14510;SDS011;7341;50.930;4.038;2022-09-27T02:09:39;4.27;;;1.63;;
14510;SDS011;7341;50.930;4.038;2022-09-27T02:12:12;7.50;;;1.50;;
14510;SDS011;7341;50.930;4.038;2022-09-27T02:14:43;3.87;;;1.40;;
14510;SDS011;7341;50.930;4.038;2022-09-27T02:17:19;6.77;;;1.80;;
14510;SDS011;7341;50.930;4.038;2022-09-27T02:19:52;3.80;;;1.93;;
14510;SDS011;7341;50.930;4.038;2022-09-27T02:22:29;2.67;;;1.80;;
14510;SDS011;7341;50.930;4.038;2022-09-27T02:25:01;6.57;;;2.00;;
14510;SDS011;7341;50.930;4.038;2022-09-27T02:27:36;5.27;;;2.20;;
14510;SDS011;7341;50.930;4.038;2022-09-27T02:30:11;4.43;;;1.90;;
14510;SDS011;7341;50.930;4.038;2022-09-27T02:32:41;5.70;;;1.80;;
14510;SDS011;7341;50.930;4.038;2022-09-27T02:35:10;7.05;;;2.45;;
14510;SDS011;7341;50.930;4.038;2022-09-27T02:37:40;6.83;;;2.50;;
14510;SDS011;7341;50.930;4.038;2022-09-27T02:40:09;4.57;;;1.83;;
14510;SDS011;7341;50.930;4.038;2022-09-27T02:42:36;5.70;;;1.80;;
14510;SDS011;7341;50.930;4.038;2022-09-27T02:45:04;6.70;;;1.77;;
14510;SDS011;7341;50.930;4.038;2022-09-27T02:47:39;4.60;;;1.63;;
14510;SDS011;7341;50.930;4.038;2022-09-27T02:53:09;3.77;;;1.53;;
14510;SDS011;7341;50.930;4.038;2022-09-27T02:55:45;5.43;;;1.87;;
14510;SDS011;7341;50.930;4.038;2022-09-27T02:58:21;2.40;;;1.50;;
14510;SDS011;7341;50.930;4.038;2022-09-27T03:01:00;2.23;;;1.50;;
14510;SDS011;7341;50.930;4.038;2022-09-27T03:03:34;4.20;;;1.77;;
14510;SDS011;7341;50.930;4.038;2022-09-27T03:06:08;2.53;;;1.23;;
14510;SDS011;7341;50.930;4.038;2022-09-27T03:08:37;5.53;;;1.53;;
14510;SDS011;7341;50.930;4.038;2022-09-27T03:11:05;4.83;;;1.60;;
14510;SDS011;7341;50.930;4.038;2022-09-27T03:13:32;3.37;;;1.50;;
14510;SDS011;7341;50.930;4.038;2022-09-27T03:16:03;2.90;;;1.40;;
14510;SDS011;7341;50.930;4.038;2022-09-27T03:18:30;5.77;;;1.63;;
14510;SDS011;7341;50.930;4.038;2022-09-27T03:20:58;5.23;;;1.60;;
14510;SDS011;7341;50.930;4.038;2022-09-27T03:23:25;2.40;;;1.40;;
14510;SDS011;7341;50.930;4.038;2022-09-27T03:25:52;4.33;;;1.20;;
14510;SDS011;7341;50.930;4.038;2022-09-27T03:28:19;4.03;;;1.30;;
14510;SDS011;7341;50.930;4.038;2022-09-27T03:30:46;5.78;;;2.10;;
14510;SDS011;7341;50.930;4.038;2022-09-27T03:33:13;9.00;;;2.33;;
14510;SDS011;7341;50.930;4.038;2022-09-27T03:35:40;3.33;;;1.60;;
14510;SDS011;7341;50.930;4.038;2022-09-27T03:38:09;6.10;;;1.80;;
14510;SDS011;7341;50.930;4.038;2022-09-27T03:40:36;3.13;;;1.90;;
14510;SDS011;7341;50.930;4.038;2022-09-27T03:43:04;4.63;;;1.43;;
14510;SDS011;7341;50.930;4.038;2022-09-27T03:45:30;3.83;;;1.50;;
14510;SDS011;7341;50.930;4.038;2022-09-27T03:47:57;4.37;;;1.67;;
14510;SDS011;7341;50.930;4.038;2022-09-27T03:50:26;4.33;;;1.63;;
14510;SDS011;7341;50.930;4.038;2022-09-27T03:52:53;2.83;;;1.70;;
14510;SDS011;7341;50.930;4.038;2022-09-27T03:55:21;4.87;;;2.00;;
14510;SDS011;7341;50.930;4.038;2022-09-27T03:57:48;4.93;;;2.40;;
14510;SDS011;7341;50.930;4.038;2022-09-27T04:00:15;6.47;;;3.27;;
14510;SDS011;7341;50.930;4.038;2022-09-27T04:02:42;6.37;;;3.37;;
14510;SDS011;7341;50.930;4.038;2022-09-27T04:05:09;4.73;;;4.20;;
14510;SDS011;7341;50.930;4.038;2022-09-27T04:07:36;7.80;;;4.87;;
14510;SDS011;7341;50.930;4.038;2022-09-27T04:10:04;5.30;;;4.00;;
14510;SDS011;7341;50.930;4.038;2022-09-27T04:12:33;6.47;;;4.40;;
14510;SDS011;7341;50.930;4.038;2022-09-27T04:15:00;5.90;;;5.30;;
14510;SDS011;7341;50.930;4.038;2022-09-27T04:19:57;5.33;;;4.80;;
14510;SDS011;7341;50.930;4.038;2022-09-27T04:22:33;5.67;;;4.70;;
14510;SDS011;7341;50.930;4.038;2022-09-27T04:25:01;7.07;;;4.10;;
14510;SDS011;7341;50.930;4.038;2022-09-27T04:27:29;7.88;;;4.93;;
14510;SDS011;7341;50.930;4.038;2022-09-27T04:30:03;5.97;;;3.53;;
14510;SDS011;7341;50.930;4.038;2022-09-27T04:32:39;5.53;;;3.37;;
14510;SDS011;7341;50.930;4.038;2022-09-27T04:35:09;4.63;;;3.30;;
14510;SDS011;7341;50.930;4.038;2022-09-27T04:37:56;5.40;;;3.20;;
14510;SDS011;7341;50.930;4.038;2022-09-27T04:40:24;5.70;;;3.60;;
14510;SDS011;7341;50.930;4.038;2022-09-27T04:42:52;5.53;;;3.20;;
14510;SDS011;7341;50.930;4.038;2022-09-27T04:45:21;4.67;;;3.03;;
14510;SDS011;7341;50.930;4.038;2022-09-27T04:47:48;4.50;;;3.07;;
14510;SDS011;7341;50.930;4.038;2022-09-27T04:50:16;6.93;;;3.50;;
14510;SDS011;7341;50.930;4.038;2022-09-27T04:52:48;3.47;;;2.93;;
14510;SDS011;7341;50.930;4.038;2022-09-27T04:55:16;5.90;;;2.73;;
14510;SDS011;7341;50.930;4.038;2022-09-27T04:57:43;4.10;;;2.60;;
14510;SDS011;7341;50.930;4.038;2022-09-27T05:00:10;6.07;;;3.20;;
14510;SDS011;7341;50.930;4.038;2022-09-27T05:02:46;3.63;;;2.87;;
14510;SDS011;7341;50.930;4.038;2022-09-27T05:05:13;2.90;;;2.60;;
14510;SDS011;7341;50.930;4.038;2022-09-27T05:07:40;5.73;;;2.80;;
14510;SDS011;7341;50.930;4.038;2022-09-27T05:10:14;4.13;;;2.70;;
14510;SDS011;7341;50.930;4.038;2022-09-27T05:15:11;5.40;;;2.20;;
14510;SDS011;7341;50.930;4.038;2022-09-27T05:17:43;5.50;;;2.20;;
14510;SDS011;7341;50.930;4.038;2022-09-27T05:20:12;5.97;;;2.53;;
14510;SDS011;7341;50.930;4.038;2022-09-27T05:22:40;4.30;;;2.20;;
14510;SDS011;7341;50.930;4.038;2022-09-27T05:25:08;2.77;;;2.23;;
14510;SDS011;7341;50.930;4.038;2022-09-27T05:27:35;3.97;;;2.10;;
14510;SDS011;7341;50.930;4.038;2022-09-27T05:30:08;2.47;;;2.10;;
14510;SDS011;7341;50.930;4.038;2022-09-27T05:32:42;2.93;;;2.10;;
14510;SDS011;7341;50.930;4.038;2022-09-27T05:35:14;2.27;;;1.47;;
14510;SDS011;7341;50.930;4.038;2022-09-27T05:37:41;1.73;;;1.63;;
14510;SDS011;7341;50.930;4.038;2022-09-27T05:40:11;1.80;;;1.67;;
14510;SDS011;7341;50.930;4.038;2022-09-27T05:42:40;5.60;;;2.20;;
14510;SDS011;7341;50.930;4.038;2022-09-27T05:45:07;3.57;;;1.83;;
14510;SDS011;7341;50.930;4.038;2022-09-27T05:47:36;3.30;;;2.13;;
14510;SDS011;7341;50.930;4.038;2022-09-27T05:50:03;3.33;;;1.70;;
14510;SDS011;7341;50.930;4.038;2022-09-27T05:52:32;3.40;;;1.73;;
14510;SDS011;7341;50.930;4.038;2022-09-27T05:55:01;4.83;;;2.00;;
14510;SDS011;7341;50.930;4.038;2022-09-27T05:57:29;9.17;;;2.10;;
14510;SDS011;7341;50.930;4.038;2022-09-27T05:59:56;3.43;;;1.90;;
14510;SDS011;7341;50.930;4.038;2022-09-27T06:02:23;2.67;;;1.97;;
14510;SDS011;7341;50.930;4.038;2022-09-27T06:04:50;2.40;;;2.07;;
14510;SDS011;7341;50.930;4.038;2022-09-27T06:07:16;6.73;;;2.57;;
14510;SDS011;7341;50.930;4.038;2022-09-27T06:09:45;2.67;;;2.43;;
14510;SDS011;7341;50.930;4.038;2022-09-27T06:12:12;4.77;;;2.77;;
14510;SDS011;7341;50.930;4.038;2022-09-27T06:14:39;3.23;;;2.57;;
14510;SDS011;7341;50.930;4.038;2022-09-27T06:17:06;4.67;;;2.53;;
14510;SDS011;7341;50.930;4.038;2022-09-27T06:19:33;5.47;;;2.10;;
14510;SDS011;7341;50.930;4.038;2022-09-27T06:22:00;4.87;;;2.30;;
14510;SDS011;7341;50.930;4.038;2022-09-27T06:24:27;4.57;;;1.90;;
14510;SDS011;7341;50.930;4.038;2022-09-27T06:26:55;2.93;;;2.40;;
14510;SDS011;7341;50.930;4.038;2022-09-27T06:29:22;5.43;;;3.13;;
14510;SDS011;7341;50.930;4.038;2022-09-27T06:31:49;5.07;;;2.10;;
14510;SDS011;7341;50.930;4.038;2022-09-27T06:34:16;2.60;;;2.40;;
14510;SDS011;7341;50.930;4.038;2022-09-27T06:36:43;5.43;;;2.53;;
14510;SDS011;7341;50.930;4.038;2022-09-27T06:39:11;3.70;;;2.60;;
14510;SDS011;7341;50.930;4.038;2022-09-27T06:41:37;11.73;;;5.20;;
14510;SDS011;7341;50.930;4.038;2022-09-27T06:44:06;4.47;;;3.50;;
14510;SDS011;7341;50.930;4.038;2022-09-27T06:46:35;5.93;;;3.03;;
14510;SDS011;7341;50.930;4.038;2022-09-27T06:49:02;4.80;;;2.93;;
14510;SDS011;7341;50.930;4.038;2022-09-27T06:51:29;3.60;;;2.70;;
14510;SDS011;7341;50.930;4.038;2022-09-27T06:53:57;3.87;;;3.03;;
14510;SDS011;7341;50.930;4.038;2022-09-27T06:56:25;3.33;;;2.87;;
14510;SDS011;7341;50.930;4.038;2022-09-27T06:58:51;5.83;;;3.00;;
14510;SDS011;7341;50.930;4.038;2022-09-27T07:01:37;7.80;;;3.20;;
14510;SDS011;7341;50.930;4.038;2022-09-27T07:04:04;3.03;;;2.77;;
14510;SDS011;7341;50.930;4.038;2022-09-27T07:06:31;4.93;;;3.07;;
14510;SDS011;7341;50.930;4.038;2022-09-27T07:08:59;5.67;;;3.37;;
14510;SDS011;7341;50.930;4.038;2022-09-27T07:11:27;4.95;;;3.70;;
14510;SDS011;7341;50.930;4.038;2022-09-27T07:13:54;5.20;;;3.20;;
14510;SDS011;7341;50.930;4.038;2022-09-27T07:16:21;4.17;;;3.27;;
14510;SDS011;7341;50.930;4.038;2022-09-27T07:18:49;5.47;;;3.03;;
14510;SDS011;7341;50.930;4.038;2022-09-27T07:21:16;2.80;;;2.60;;
14510;SDS011;7341;50.930;4.038;2022-09-27T07:23:43;4.63;;;2.90;;
14510;SDS011;7341;50.930;4.038;2022-09-27T07:26:10;3.07;;;2.60;;
14510;SDS011;7341;50.930;4.038;2022-09-27T07:28:37;4.60;;;2.90;;
14510;SDS011;7341;50.930;4.038;2022-09-27T07:31:05;3.17;;;2.83;;
14510;SDS011;7341;50.930;4.038;2022-09-27T07:33:33;4.30;;;2.77;;
14510;SDS011;7341;50.930;4.038;2022-09-27T07:36:06;8.47;;;2.80;;
14510;SDS011;7341;50.930;4.038;2022-09-27T07:38:34;4.57;;;3.50;;
14510;SDS011;7341;50.930;4.038;2022-09-27T07:41:04;3.63;;;2.50;;
14510;SDS011;7341;50.930;4.038;2022-09-27T07:43:31;5.07;;;2.73;;
14510;SDS011;7341;50.930;4.038;2022-09-27T07:45:58;4.17;;;2.23;;
14510;SDS011;7341;50.930;4.038;2022-09-27T07:48:25;3.50;;;2.43;;
14510;SDS011;7341;50.930;4.038;2022-09-27T07:50:52;4.13;;;2.63;;
14510;SDS011;7341;50.930;4.038;2022-09-27T07:53:20;6.03;;;2.47;;
14510;SDS011;7341;50.930;4.038;2022-09-27T07:55:48;5.10;;;2.20;;
14510;SDS011;7341;50.930;4.038;2022-09-27T07:58:17;7.40;;;2.53;;
14510;SDS011;7341;50.930;4.038;2022-09-27T08:00:44;2.70;;;2.50;;
14510;SDS011;7341;50.930;4.038;2022-09-27T08:03:11;3.93;;;2.40;;
14510;SDS011;7341;50.930;4.038;2022-09-27T08:05:40;7.45;;;2.92;;
14510;SDS011;7341;50.930;4.038;2022-09-27T08:08:08;5.20;;;2.53;;
14510;SDS011;7341;50.930;4.038;2022-09-27T08:10:36;2.50;;;1.93;;
14510;SDS011;7341;50.930;4.038;2022-09-27T08:13:09;5.07;;;2.60;;
14510;SDS011;7341;50.930;4.038;2022-09-27T08:15:36;4.30;;;2.13;;
14510;SDS011;7341;50.930;4.038;2022-09-27T08:18:03;3.90;;;2.27;;
14510;SDS011;7341;50.930;4.038;2022-09-27T08:20:31;2.77;;;1.80;;
14510;SDS011;7341;50.930;4.038;2022-09-27T08:22:57;3.00;;;2.10;;
14510;SDS011;7341;50.930;4.038;2022-09-27T08:25:24;4.70;;;2.20;;
14510;SDS011;7341;50.930;4.038;2022-09-27T08:27:57;5.40;;;2.43;;
14510;SDS011;7341;50.930;4.038;2022-09-27T08:30:25;4.13;;;2.20;;
14510;SDS011;7341;50.930;4.038;2022-09-27T08:32:55;2.75;;;2.13;;
14510;SDS011;7341;50.930;4.038;2022-09-27T08:35:23;5.83;;;1.80;;
14510;SDS011;7341;50.930;4.038;2022-09-27T08:37:53;4.97;;;1.63;;
14510;SDS011;7341;50.930;4.038;2022-09-27T08:40:21;1.87;;;1.77;;
14510;SDS011;7341;50.930;4.038;2022-09-27T08:42:54;3.93;;;1.50;;
14510;SDS011;7341;50.930;4.038;2022-09-27T08:45:29;2.87;;;1.40;;
14510;SDS011;7341;50.930;4.038;2022-09-27T08:48:00;2.37;;;1.20;;
14510;SDS011;7341;50.930;4.038;2022-09-27T08:50:29;4.50;;;1.50;;
14510;SDS011;7341;50.930;4.038;2022-09-27T08:53:00;2.03;;;1.30;;
14510;SDS011;7341;50.930;4.038;2022-09-27T08:55:31;4.90;;;1.47;;
14510;SDS011;7341;50.930;4.038;2022-09-27T08:58:08;5.03;;;1.33;;
14510;SDS011;7341;50.930;4.038;2022-09-27T09:00:40;4.27;;;1.60;;
14510;SDS011;7341;50.930;4.038;2022-09-27T09:03:07;4.70;;;2.00;;
14510;SDS011;7341;50.930;4.038;2022-09-27T09:05:46;3.60;;;1.53;;
14510;SDS011;7341;50.930;4.038;2022-09-27T09:08:23;4.90;;;2.27;;
14510;SDS011;7341;50.930;4.038;2022-09-27T09:10:58;5.03;;;1.70;;
14510;SDS011;7341;50.930;4.038;2022-09-27T09:16:50;5.43;;;2.20;;
14510;SDS011;7341;50.930;4.038;2022-09-27T09:19:39;3.33;;;1.73;;
14510;SDS011;7341;50.930;4.038;2022-09-27T09:22:24;3.10;;;1.90;;
14510;SDS011;7341;50.930;4.038;2022-09-27T09:25:05;5.33;;;1.93;;
14510;SDS011;7341;50.930;4.038;2022-09-27T09:27:44;4.87;;;1.73;;
14510;SDS011;7341;50.930;4.038;2022-09-27T09:30:27;4.23;;;1.97;;
14510;SDS011;7341;50.930;4.038;2022-09-27T09:33:06;6.33;;;2.13;;
14510;SDS011;7341;50.930;4.038;2022-09-27T09:35:40;3.23;;;1.77;;
14510;SDS011;7341;50.930;4.038;2022-09-27T09:38:12;5.33;;;1.80;;
14510;SDS011;7341;50.930;4.038;2022-09-27T09:40:44;2.87;;;1.67;;
14510;SDS011;7341;50.930;4.038;2022-09-27T09:43:14;5.73;;;1.77;;
14510;SDS011;7341;50.930;4.038;2022-09-27T09:45:46;5.30;;;2.00;;
14510;SDS011;7341;50.930;4.038;2022-09-27T09:48:20;5.63;;;1.80;;
14510;SDS011;7341;50.930;4.038;2022-09-27T09:50:53;2.83;;;1.63;;
14510;SDS011;7341;50.930;4.038;2022-09-27T09:53:27;4.10;;;1.80;;
14510;SDS011;7341;50.930;4.038;2022-09-27T09:56:04;4.47;;;1.90;;
14510;SDS011;7341;50.930;4.038;2022-09-27T09:58:35;7.10;;;2.17;;
14510;SDS011;7341;50.930;4.038;2022-09-27T10:01:15;7.30;;;2.10;;
14510;SDS011;7341;50.930;4.038;2022-09-27T10:03:47;6.83;;;1.90;;
14510;SDS011;7341;50.930;4.038;2022-09-27T10:06:14;6.00;;;1.50;;
14510;SDS011;7341;50.930;4.038;2022-09-27T10:08:42;4.57;;;2.20;;
14510;SDS011;7341;50.930;4.038;2022-09-27T10:11:11;5.20;;;1.40;;
14510;SDS011;7341;50.930;4.038;2022-09-27T10:13:44;6.67;;;2.07;;
14510;SDS011;7341;50.930;4.038;2022-09-27T10:16:13;5.30;;;1.67;;
14510;SDS011;7341;50.930;4.038;2022-09-27T10:18:42;4.57;;;1.87;;
14510;SDS011;7341;50.930;4.038;2022-09-27T10:21:13;4.07;;;1.73;;
14510;SDS011;7341;50.930;4.038;2022-09-27T10:26:37;6.03;;;2.20;;
14510;SDS011;7341;50.930;4.038;2022-09-27T10:31:58;5.47;;;2.20;;
14510;SDS011;7341;50.930;4.038;2022-09-27T10:34:29;5.20;;;1.77;;
14510;SDS011;7341;50.930;4.038;2022-09-27T10:37:12;5.63;;;2.23;;
14510;SDS011;7341;50.930;4.038;2022-09-27T10:39:42;6.83;;;1.93;;
14510;SDS011;7341;50.930;4.038;2022-09-27T10:42:19;1.97;;;1.00;;
14510;SDS011;7341;50.930;4.038;2022-09-27T10:44:46;4.03;;;1.10;;
14510;SDS011;7341;50.930;4.038;2022-09-27T10:47:17;4.30;;;0.80;;
14510;SDS011;7341;50.930;4.038;2022-09-27T10:49:48;2.43;;;0.73;;
14510;SDS011;7341;50.930;4.038;2022-09-27T10:52:18;0.83;;;0.63;;
14510;SDS011;7341;50.930;4.038;2022-09-27T10:54:52;2.07;;;0.80;;
14510;SDS011;7341;50.930;4.038;2022-09-27T10:57:20;1.97;;;0.60;;
14510;SDS011;7341;50.930;4.038;2022-09-27T10:59:50;3.40;;;0.60;;
14510;SDS011;7341;50.930;4.038;2022-09-27T11:02:21;1.07;;;0.80;;
14510;SDS011;7341;50.930;4.038;2022-09-27T11:05:02;4.17;;;1.20;;
14510;SDS011;7341;50.930;4.038;2022-09-27T11:07:37;5.97;;;1.20;;
14510;SDS011;7341;50.930;4.038;2022-09-27T11:10:24;1.90;;;1.03;;
14510;SDS011;7341;50.930;4.038;2022-09-27T11:13:06;1.97;;;0.90;;
14510;SDS011;7341;50.930;4.038;2022-09-27T11:15:38;4.73;;;1.03;;
14510;SDS011;7341;50.930;4.038;2022-09-27T11:18:17;2.10;;;1.00;;
14510;SDS011;7341;50.930;4.038;2022-09-27T11:20:55;1.83;;;1.00;;
14510;SDS011;7341;50.930;4.038;2022-09-27T11:23:37;2.63;;;0.83;;
14510;SDS011;7341;50.930;4.038;2022-09-27T11:26:20;1.20;;;0.67;;
14510;SDS011;7341;50.930;4.038;2022-09-27T11:28:55;2.60;;;0.67;;
14510;SDS011;7341;50.930;4.038;2022-09-27T11:31:35;1.20;;;1.00;;
14510;SDS011;7341;50.930;4.038;2022-09-27T11:34:17;2.30;;;1.10;;
14510;SDS011;7341;50.930;4.038;2022-09-27T11:37:02;2.53;;;1.10;;
14510;SDS011;7341;50.930;4.038;2022-09-27T11:39:46;2.07;;;0.87;;
14510;SDS011;7341;50.930;4.038;2022-09-27T11:42:37;2.23;;;1.37;;
14510;SDS011;7341;50.930;4.038;2022-09-27T11:45:22;2.07;;;1.20;;
14510;SDS011;7341;50.930;4.038;2022-09-27T11:48:03;3.33;;;1.47;;
14510;SDS011;7341;50.930;4.038;2022-09-27T11:50:49;3.13;;;1.37;;
14510;SDS011;7341;50.930;4.038;2022-09-27T11:53:30;2.50;;;1.30;;
14510;SDS011;7341;50.930;4.038;2022-09-27T11:56:13;1.57;;;0.97;;
14510;SDS011;7341;50.930;4.038;2022-09-27T11:58:50;2.13;;;1.20;;
14510;SDS011;7341;50.930;4.038;2022-09-27T12:01:27;4.43;;;1.63;;
14510;SDS011;7341;50.930;4.038;2022-09-27T12:07:00;3.50;;;1.10;;
14510;SDS011;7341;50.930;4.038;2022-09-27T12:09:35;4.67;;;1.47;;
14510;SDS011;7341;50.930;4.038;2022-09-27T12:12:09;3.57;;;1.63;;
14510;SDS011;7341;50.930;4.038;2022-09-27T12:14:40;5.07;;;1.30;;
14510;SDS011;7341;50.930;4.038;2022-09-27T12:17:10;3.90;;;1.40;;
14510;SDS011;7341;50.930;4.038;2022-09-27T12:19:41;5.57;;;1.67;;
14510;SDS011;7341;50.930;4.038;2022-09-27T12:22:13;4.00;;;1.50;;
14510;SDS011;7341;50.930;4.038;2022-09-27T12:24:41;4.97;;;1.30;;
14510;SDS011;7341;50.930;4.038;2022-09-27T12:27:12;2.10;;;1.10;;
14510;SDS011;7341;50.930;4.038;2022-09-27T12:29:44;3.70;;;1.10;;
14510;SDS011;7341;50.930;4.038;2022-09-27T12:32:15;2.43;;;0.80;;
14510;SDS011;7341;50.930;4.038;2022-09-27T12:34:45;3.20;;;0.90;;
14510;SDS011;7341;50.930;4.038;2022-09-27T12:39:51;3.03;;;0.83;;
14510;SDS011;7341;50.930;4.038;2022-09-27T12:42:24;5.17;;;0.90;;
14510;SDS011;7341;50.930;4.038;2022-09-27T12:44:57;0.87;;;0.70;;
14510;SDS011;7341;50.930;4.038;2022-09-27T12:47:30;2.03;;;0.83;;
14510;SDS011;7341;50.930;4.038;2022-09-27T12:50:06;2.90;;;1.17;;
14510;SDS011;7341;50.930;4.038;2022-09-27T12:52:40;1.33;;;0.83;;
14510;SDS011;7341;50.930;4.038;2022-09-27T12:55:21;2.33;;;0.90;;
14510;SDS011;7341;50.930;4.038;2022-09-27T12:58:10;4.57;;;1.10;;
14510;SDS011;7341;50.930;4.038;2022-09-27T13:00:57;3.33;;;1.20;;
14510;SDS011;7341;50.930;4.038;2022-09-27T13:03:33;3.97;;;1.30;;
14510;SDS011;7341;50.930;4.038;2022-09-27T13:06:24;3.13;;;1.13;;
14510;SDS011;7341;50.930;4.038;2022-09-27T13:11:59;3.93;;;1.10;;
14510;SDS011;7341;50.930;4.038;2022-09-27T13:14:38;6.50;;;1.13;;
14510;SDS011;7341;50.930;4.038;2022-09-27T13:19:58;3.30;;;1.10;;
14510;SDS011;7341;50.930;4.038;2022-09-27T13:30:59;9.17;;;1.47;;
14510;SDS011;7341;50.930;4.038;2022-09-27T13:33:31;5.80;;;1.60;;
14510;SDS011;7341;50.930;4.038;2022-09-27T13:36:07;5.77;;;1.40;;
14510;SDS011;7341;50.930;4.038;2022-09-27T13:38:51;4.43;;;1.40;;
14510;SDS011;7341;50.930;4.038;2022-09-27T13:41:25;4.90;;;1.57;;
14510;SDS011;7341;50.930;4.038;2022-09-27T13:43:58;6.03;;;1.23;;
14510;SDS011;7341;50.930;4.038;2022-09-27T13:46:42;3.87;;;1.27;;
14510;SDS011;7341;50.930;4.038;2022-09-27T13:49:17;3.10;;;1.30;;
14510;SDS011;7341;50.930;4.038;2022-09-27T13:51:48;4.87;;;1.30;;
14510;SDS011;7341;50.930;4.038;2022-09-27T13:54:39;6.13;;;1.53;;
14510;SDS011;7341;50.930;4.038;2022-09-27T14:00:19;3.97;;;1.63;;
14510;SDS011;7341;50.930;4.038;2022-09-27T14:02:53;4.83;;;1.50;;
14510;SDS011;7341;50.930;4.038;2022-09-27T14:05:26;6.83;;;1.47;;
14510;SDS011;7341;50.930;4.038;2022-09-27T14:07:57;3.97;;;1.40;;
14510;SDS011;7341;50.930;4.038;2022-09-27T14:10:27;7.50;;;1.57;;
14510;SDS011;7341;50.930;4.038;2022-09-27T14:12:56;3.23;;;1.17;;
14510;SDS011;7341;50.930;4.038;2022-09-27T14:15:26;7.43;;;1.40;;
14510;SDS011;7341;50.930;4.038;2022-09-27T14:17:56;2.00;;;1.30;;
14510;SDS011;7341;50.930;4.038;2022-09-27T14:20:34;6.47;;;2.20;;
14510;SDS011;7341;50.930;4.038;2022-09-27T14:23:05;3.97;;;1.70;;
14510;SDS011;7341;50.930;4.038;2022-09-27T14:25:43;3.83;;;1.80;;
14510;SDS011;7341;50.930;4.038;2022-09-27T14:28:20;7.50;;;1.77;;
14510;SDS011;7341;50.930;4.038;2022-09-27T14:31:03;5.80;;;1.90;;
14510;SDS011;7341;50.930;4.038;2022-09-27T14:33:33;5.53;;;1.90;;
14510;SDS011;7341;50.930;4.038;2022-09-27T14:36:07;5.93;;;1.90;;
14510;SDS011;7341;50.930;4.038;2022-09-27T14:39:10;8.53;;;1.90;;
14510;SDS011;7341;50.930;4.038;2022-09-27T14:41:39;6.23;;;1.90;;
14510;SDS011;7341;50.930;4.038;2022-09-27T14:44:13;20.27;;;8.43;;
14510;SDS011;7341;50.930;4.038;2022-09-27T14:46:42;5.83;;;2.27;;
14510;SDS011;7341;50.930;4.038;2022-09-27T14:49:15;4.87;;;1.50;;
14510;SDS011;7341;50.930;4.038;2022-09-27T14:51:49;3.10;;;1.10;;
14510;SDS011;7341;50.930;4.038;2022-09-27T14:54:20;3.90;;;1.40;;
14510;SDS011;7341;50.930;4.038;2022-09-27T14:56:50;4.90;;;1.10;;
14510;SDS011;7341;50.930;4.038;2022-09-27T14:59:20;5.37;;;1.70;;
14510;SDS011;7341;50.930;4.038;2022-09-27T15:01:54;2.77;;;1.20;;
14510;SDS011;7341;50.930;4.038;2022-09-27T15:04:27;4.03;;;1.33;;
14510;SDS011;7341;50.930;4.038;2022-09-27T15:06:56;2.67;;;1.47;;
14510;SDS011;7341;50.930;4.038;2022-09-27T15:09:25;6.73;;;1.93;;
14510;SDS011;7341;50.930;4.038;2022-09-27T15:11:54;2.73;;;1.40;;
14510;SDS011;7341;50.930;4.038;2022-09-27T15:14:25;3.40;;;1.10;;
14510;SDS011;7341;50.930;4.038;2022-09-27T15:16:57;2.70;;;1.00;;
14510;SDS011;7341;50.930;4.038;2022-09-27T15:19:31;2.93;;;1.20;;
14510;SDS011;7341;50.930;4.038;2022-09-27T15:25:02;2.30;;;1.03;;
14510;SDS011;7341;50.930;4.038;2022-09-27T15:27:49;2.63;;;1.10;;
14510;SDS011;7341;50.930;4.038;2022-09-27T15:30:23;3.50;;;1.20;;
14510;SDS011;7341;50.930;4.038;2022-09-27T15:32:53;2.37;;;1.20;;
14510;SDS011;7341;50.930;4.038;2022-09-27T15:35:27;2.63;;;1.30;;
14510;SDS011;7341;50.930;4.038;2022-09-27T15:38:11;3.87;;;1.20;;
14510;SDS011;7341;50.930;4.038;2022-09-27T15:41:02;3.10;;;1.40;;
14510;SDS011;7341;50.930;4.038;2022-09-27T15:43:38;3.17;;;1.50;;
14510;SDS011;7341;50.930;4.038;2022-09-27T15:46:27;4.83;;;1.87;;
14510;SDS011;7341;50.930;4.038;2022-09-27T15:51:59;3.53;;;1.50;;
14510;SDS011;7341;50.930;4.038;2022-09-27T15:54:30;5.50;;;2.03;;
14510;SDS011;7341;50.930;4.038;2022-09-27T15:57:00;5.93;;;1.97;;
14510;SDS011;7341;50.930;4.038;2022-09-27T15:59:30;2.33;;;1.70;;
14510;SDS011;7341;50.930;4.038;2022-09-27T16:02:00;4.60;;;3.10;;
14510;SDS011;7341;50.930;4.038;2022-09-27T16:04:31;3.77;;;1.90;;
14510;SDS011;7341;50.930;4.038;2022-09-27T16:07:00;5.93;;;1.93;;
14510;SDS011;7341;50.930;4.038;2022-09-27T16:09:30;4.03;;;1.60;;
14510;SDS011;7341;50.930;4.038;2022-09-27T16:11:57;4.63;;;1.80;;
14510;SDS011;7341;50.930;4.038;2022-09-27T16:14:24;4.73;;;2.27;;
14510;SDS011;7341;50.930;4.038;2022-09-27T16:16:51;3.03;;;2.00;;
14510;SDS011;7341;50.930;4.038;2022-09-27T16:19:21;4.27;;;1.90;;